sensor_id;sensor_type;location;lat;lon;timestamp;pressure;altitude;pressure_sealevel;temperature
76713;BMP280;65640;43.154;25.658;2023-03-01T00:02:00;101593.03;;;7.57
76713;BMP280;65640;43.154;25.658;2023-03-01T00:04:25;101584.41;;;7.56
76713;BMP280;65640;43.154;25.658;2023-03-01T00:06:52;101584.06;;;7.53
76713;BMP280;65640;43.154;25.658;2023-03-01T00:09:17;101583.25;;;7.52
76713;BMP280;65640;43.154;25.658;2023-03-01T00:11:44;101578.47;;;7.49
76713;BMP280;65640;43.154;25.658;2023-03-01T00:14:09;101576.25;;;7.53
76713;BMP280;65640;43.154;25.658;2023-03-01T00:16:40;101571.81;;;7.53
76713;BMP280;65640;43.154;25.658;2023-03-01T00:19:19;101570.38;;;7.57
76713;BMP280;65640;43.154;25.658;2023-03-01T00:21:45;101568.78;;;7.56
76713;BMP280;65640;43.154;25.658;2023-03-01T00:24:10;101561.41;;;7.53
76713;BMP280;65640;43.154;25.658;2023-03-01T00:26:36;101565.44;;;7.49
76713;BMP280;65640;43.154;25.658;2023-03-01T00:29:02;101568.63;;;7.51
76713;BMP280;65640;43.154;25.658;2023-03-01T00:31:30;101579.66;;;7.53
76713;BMP280;65640;43.154;25.658;2023-03-01T00:33:58;101581.16;;;7.61
76713;BMP280;65640;43.154;25.658;2023-03-01T00:36:32;101575.94;;;7.61
76713;BMP280;65640;43.154;25.658;2023-03-01T00:38:58;101583.56;;;7.62
76713;BMP280;65640;43.154;25.658;2023-03-01T00:41:24;101577.56;;;7.62
76713;BMP280;65640;43.154;25.658;2023-03-01T00:43:52;101570.94;;;7.59
76713;BMP280;65640;43.154;25.658;2023-03-01T00:46:20;101568.06;;;7.49
76713;BMP280;65640;43.154;25.658;2023-03-01T00:48:47;101553.84;;;7.45
76713;BMP280;65640;43.154;25.658;2023-03-01T00:51:16;101542.91;;;7.43
76713;BMP280;65640;43.154;25.658;2023-03-01T00:53:42;101542.22;;;7.48
76713;BMP280;65640;43.154;25.658;2023-03-01T00:56:09;101535.56;;;7.52
76713;BMP280;65640;43.154;25.658;2023-03-01T00:58:35;101526.38;;;7.49
76713;BMP280;65640;43.154;25.658;2023-03-01T01:01:06;101530.00;;;7.30
76713;BMP280;65640;43.154;25.658;2023-03-01T01:03:31;101522.47;;;7.22
76713;BMP280;65640;43.154;25.658;2023-03-01T01:05:57;101513.56;;;7.11
76713;BMP280;65640;43.154;25.658;2023-03-01T01:08:22;101517.34;;;7.15
76713;BMP280;65640;43.154;25.658;2023-03-01T01:10:48;101510.75;;;7.13
76713;BMP280;65640;43.154;25.658;2023-03-01T01:13:13;101512.78;;;7.11
76713;BMP280;65640;43.154;25.658;2023-03-01T01:15:39;101506.41;;;7.07
76713;BMP280;65640;43.154;25.658;2023-03-01T01:18:05;101506.19;;;7.08
76713;BMP280;65640;43.154;25.658;2023-03-01T01:20:31;101502.81;;;7.08
76713;BMP280;65640;43.154;25.658;2023-03-01T01:22:57;101499.53;;;7.12
76713;BMP280;65640;43.154;25.658;2023-03-01T01:25:22;101486.75;;;7.11
76713;BMP280;65640;43.154;25.658;2023-03-01T01:27:50;101490.00;;;7.06
76713;BMP280;65640;43.154;25.658;2023-03-01T01:30:16;101491.34;;;7.09
76713;BMP280;65640;43.154;25.658;2023-03-01T01:32:41;101497.16;;;7.11
76713;BMP280;65640;43.154;25.658;2023-03-01T01:35:07;101485.22;;;7.03
76713;BMP280;65640;43.154;25.658;2023-03-01T01:37:32;101493.75;;;7.10
76713;BMP280;65640;43.154;25.658;2023-03-01T01:39:58;101498.13;;;7.16
76713;BMP280;65640;43.154;25.658;2023-03-01T01:42:24;101496.34;;;7.10
76713;BMP280;65640;43.154;25.658;2023-03-01T01:45:27;101505.13;;;7.16
76713;BMP280;65640;43.154;25.658;2023-03-01T01:47:55;101512.56;;;7.12
76713;BMP280;65640;43.154;25.658;2023-03-01T01:50:22;101505.56;;;7.13
76713;BMP280;65640;43.154;25.658;2023-03-01T01:52:49;101502.31;;;7.17
76713;BMP280;65640;43.154;25.658;2023-03-01T01:55:18;101511.94;;;7.17
76713;BMP280;65640;43.154;25.658;2023-03-01T01:57:49;101512.72;;;7.17
76713;BMP280;65640;43.154;25.658;2023-03-01T02:00:25;101515.69;;;7.21
76713;BMP280;65640;43.154;25.658;2023-03-01T02:03:02;101514.66;;;7.22
76713;BMP280;65640;43.154;25.658;2023-03-01T02:08:29;101511.13;;;7.16
76713;BMP280;65640;43.154;25.658;2023-03-01T02:10:57;101508.09;;;7.19
76713;BMP280;65640;43.154;25.658;2023-03-01T02:13:25;101499.03;;;7.22
76713;BMP280;65640;43.154;25.658;2023-03-01T02:15:51;101500.19;;;7.26
76713;BMP280;65640;43.154;25.658;2023-03-01T02:18:18;101508.16;;;7.31
76713;BMP280;65640;43.154;25.658;2023-03-01T02:20:50;101505.78;;;7.29
76713;BMP280;65640;43.154;25.658;2023-03-01T02:23:20;101508.22;;;7.24
76713;BMP280;65640;43.154;25.658;2023-03-01T02:28:40;101511.41;;;7.26
76713;BMP280;65640;43.154;25.658;2023-03-01T02:31:07;101507.00;;;7.27
76713;BMP280;65640;43.154;25.658;2023-03-01T02:33:51;101504.81;;;7.24
76713;BMP280;65640;43.154;25.658;2023-03-01T02:36:38;101510.03;;;7.24
76713;BMP280;65640;43.154;25.658;2023-03-01T02:39:07;101512.84;;;7.22
76713;BMP280;65640;43.154;25.658;2023-03-01T02:41:38;101498.59;;;7.25
76713;BMP280;65640;43.154;25.658;2023-03-01T02:44:05;101497.44;;;7.21
76713;BMP280;65640;43.154;25.658;2023-03-01T02:46:31;101495.09;;;7.19
76713;BMP280;65640;43.154;25.658;2023-03-01T02:48:57;101492.69;;;7.18
76713;BMP280;65640;43.154;25.658;2023-03-01T02:54:19;101489.63;;;7.21
76713;BMP280;65640;43.154;25.658;2023-03-01T02:56:47;101483.28;;;7.17
76713;BMP280;65640;43.154;25.658;2023-03-01T02:59:18;101486.25;;;7.20
76713;BMP280;65640;43.154;25.658;2023-03-01T03:01:45;101490.44;;;7.21
76713;BMP280;65640;43.154;25.658;2023-03-01T03:04:14;101493.84;;;7.22
76713;BMP280;65640;43.154;25.658;2023-03-01T03:06:48;101489.63;;;7.21
76713;BMP280;65640;43.154;25.658;2023-03-01T03:09:15;101489.09;;;7.19
76713;BMP280;65640;43.154;25.658;2023-03-01T03:11:41;101487.50;;;7.18
76713;BMP280;65640;43.154;25.658;2023-03-01T03:14:13;101491.53;;;7.14
76713;BMP280;65640;43.154;25.658;2023-03-01T03:16:43;101489.34;;;7.11
76713;BMP280;65640;43.154;25.658;2023-03-01T03:19:09;101486.31;;;7.14
76713;BMP280;65640;43.154;25.658;2023-03-01T03:21:35;101485.31;;;7.15
76713;BMP280;65640;43.154;25.658;2023-03-01T03:24:01;101483.06;;;7.18
76713;BMP280;65640;43.154;25.658;2023-03-01T03:26:27;101484.72;;;7.13
76713;BMP280;65640;43.154;25.658;2023-03-01T03:28:52;101491.94;;;7.11
76713;BMP280;65640;43.154;25.658;2023-03-01T03:31:18;101493.81;;;7.04
76713;BMP280;65640;43.154;25.658;2023-03-01T03:33:43;101499.84;;;7.04
76713;BMP280;65640;43.154;25.658;2023-03-01T03:36:09;101496.00;;;7.07
76713;BMP280;65640;43.154;25.658;2023-03-01T03:38:38;101492.75;;;7.11
76713;BMP280;65640;43.154;25.658;2023-03-01T03:41:07;101492.53;;;7.13
76713;BMP280;65640;43.154;25.658;2023-03-01T03:43:34;101494.13;;;7.14
76713;BMP280;65640;43.154;25.658;2023-03-01T03:46:00;101493.63;;;7.05
76713;BMP280;65640;43.154;25.658;2023-03-01T03:48:33;101497.59;;;7.08
76713;BMP280;65640;43.154;25.658;2023-03-01T03:50:59;101497.59;;;7.08
76713;BMP280;65640;43.154;25.658;2023-03-01T03:53:29;101492.03;;;7.04
76713;BMP280;65640;43.154;25.658;2023-03-01T03:55:55;101489.78;;;7.08
76713;BMP280;65640;43.154;25.658;2023-03-01T03:58:22;101484.34;;;7.09
76713;BMP280;65640;43.154;25.658;2023-03-01T04:00:51;101487.19;;;7.08
76713;BMP280;65640;43.154;25.658;2023-03-01T04:03:18;101481.97;;;7.08
76713;BMP280;65640;43.154;25.658;2023-03-01T04:05:45;101486.16;;;7.09
76713;BMP280;65640;43.154;25.658;2023-03-01T04:08:11;101486.31;;;7.14
76713;BMP280;65640;43.154;25.658;2023-03-01T04:10:43;101479.94;;;7.10
76713;BMP280;65640;43.154;25.658;2023-03-01T04:13:14;101482.53;;;7.10
76713;BMP280;65640;43.154;25.658;2023-03-01T04:15:40;101483.91;;;7.12
76713;BMP280;65640;43.154;25.658;2023-03-01T04:18:15;101485.31;;;7.15
76713;BMP280;65640;43.154;25.658;2023-03-01T04:20:41;101486.81;;;7.04
76713;BMP280;65640;43.154;25.658;2023-03-01T04:23:10;101490.81;;;7.07
76713;BMP280;65640;43.154;25.658;2023-03-01T04:25:56;101488.75;;;7.09
76713;BMP280;65640;43.154;25.658;2023-03-01T04:28:27;101483.91;;;7.12
76713;BMP280;65640;43.154;25.658;2023-03-01T04:30:55;101489.34;;;7.11
76713;BMP280;65640;43.154;25.658;2023-03-01T04:33:21;101480.31;;;7.13
76713;BMP280;65640;43.154;25.658;2023-03-01T04:35:46;101490.72;;;7.13
76713;BMP280;65640;43.154;25.658;2023-03-01T04:38:15;101490.34;;;7.10
76713;BMP280;65640;43.154;25.658;2023-03-01T04:40:41;101491.72;;;7.12
76713;BMP280;65640;43.154;25.658;2023-03-01T04:43:08;101489.78;;;7.08
76713;BMP280;65640;43.154;25.658;2023-03-01T04:45:34;101490.34;;;7.10
76713;BMP280;65640;43.154;25.658;2023-03-01T04:48:00;101485.59;;;7.07
76713;BMP280;65640;43.154;25.658;2023-03-01T04:50:25;101490.56;;;7.08
76713;BMP280;65640;43.154;25.658;2023-03-01T04:52:51;101495.00;;;7.08
76713;BMP280;65640;43.154;25.658;2023-03-01T04:55:17;101498.75;;;7.12
76713;BMP280;65640;43.154;25.658;2023-03-01T04:57:43;101495.34;;;7.11
76713;BMP280;65640;43.154;25.658;2023-03-01T05:00:13;101492.59;;;7.06
76713;BMP280;65640;43.154;25.658;2023-03-01T05:02:59;101491.53;;;7.14
76713;BMP280;65640;43.154;25.658;2023-03-01T05:05:28;101491.53;;;7.14
76713;BMP280;65640;43.154;25.658;2023-03-01T05:07:59;101488.91;;;7.14
76713;BMP280;65640;43.154;25.658;2023-03-01T05:10:26;101491.94;;;7.11
76713;BMP280;65640;43.154;25.658;2023-03-01T05:12:54;101488.75;;;7.09
76713;BMP280;65640;43.154;25.658;2023-03-01T05:15:19;101493.13;;;7.15
76713;BMP280;65640;43.154;25.658;2023-03-01T05:17:46;101484.59;;;7.08
76713;BMP280;65640;43.154;25.658;2023-03-01T05:20:12;101484.34;;;7.09
76713;BMP280;65640;43.154;25.658;2023-03-01T05:22:37;101488.31;;;7.12
76713;BMP280;65640;43.154;25.658;2023-03-01T05:25:04;101482.69;;;7.15
76713;BMP280;65640;43.154;25.658;2023-03-01T05:27:29;101487.31;;;7.13
76713;BMP280;65640;43.154;25.658;2023-03-01T05:29:55;101491.69;;;7.19
76713;BMP280;65640;43.154;25.658;2023-03-01T05:32:21;101487.03;;;7.21
76713;BMP280;65640;43.154;25.658;2023-03-01T05:34:46;101485.44;;;7.20
76713;BMP280;65640;43.154;25.658;2023-03-01T05:37:12;101483.88;;;7.19
76713;BMP280;65640;43.154;25.658;2023-03-01T05:39:38;101482.28;;;7.18
76713;BMP280;65640;43.154;25.658;2023-03-01T05:42:04;101483.97;;;7.24
76713;BMP280;65640;43.154;25.658;2023-03-01T05:44:30;101484.56;;;7.26
76713;BMP280;65640;43.154;25.658;2023-03-01T05:46:56;101485.16;;;7.28
76713;BMP280;65640;43.154;25.658;2023-03-01T05:49:22;101472.91;;;7.28
76713;BMP280;65640;43.154;25.658;2023-03-01T05:51:52;101469.88;;;7.32
76713;BMP280;65640;43.154;25.658;2023-03-01T05:54:18;101474.06;;;7.33
76713;BMP280;65640;43.154;25.658;2023-03-01T05:56:44;101479.25;;;7.33
76713;BMP280;65640;43.154;25.658;2023-03-01T05:59:10;101491.66;;;7.37
76713;BMP280;65640;43.154;25.658;2023-03-01T06:01:36;101491.22;;;7.40
76713;BMP280;65640;43.154;25.658;2023-03-01T06:04:03;101491.50;;;7.32
76713;BMP280;65640;43.154;25.658;2023-03-01T06:06:28;101498.16;;;7.28
76713;BMP280;65640;43.154;25.658;2023-03-01T06:08:54;101495.91;;;7.32
76713;BMP280;65640;43.154;25.658;2023-03-01T06:11:20;101496.06;;;7.37
76713;BMP280;65640;43.154;25.658;2023-03-01T06:13:46;101499.69;;;7.36
76713;BMP280;65640;43.154;25.658;2023-03-01T06:16:13;101501.22;;;7.43
76713;BMP280;65640;43.154;25.658;2023-03-01T06:18:39;101494.50;;;7.47
76713;BMP280;65640;43.154;25.658;2023-03-01T06:21:06;101498.28;;;7.51
76713;BMP280;65640;43.154;25.658;2023-03-01T06:23:32;101499.00;;;7.58
76713;BMP280;65640;43.154;25.658;2023-03-01T06:25:58;101491.59;;;7.55
76713;BMP280;65640;43.154;25.658;2023-03-01T06:28:24;101499.66;;;7.54
76713;BMP280;65640;43.154;25.658;2023-03-01T06:30:50;101494.22;;;7.55
76713;BMP280;65640;43.154;25.658;2023-03-01T06:33:17;101493.72;;;7.65
76713;BMP280;65640;43.154;25.658;2023-03-01T06:35:45;101496.56;;;7.63
76713;BMP280;65640;43.154;25.658;2023-03-01T06:38:11;101495.06;;;7.67
76713;BMP280;65640;43.154;25.658;2023-03-01T06:40:37;101494.53;;;7.65
76713;BMP280;65640;43.154;25.658;2023-03-01T06:43:02;101496.56;;;7.63
76713;BMP280;65640;43.154;25.658;2023-03-01T06:45:28;101492.44;;;7.67
76713;BMP280;65640;43.154;25.658;2023-03-01T06:48:01;101506.75;;;7.65
76713;BMP280;65640;43.154;25.658;2023-03-01T06:50:26;101501.75;;;7.63
76713;BMP280;65640;43.154;25.658;2023-03-01T06:52:55;101514.47;;;7.72
76713;BMP280;65640;43.154;25.658;2023-03-01T06:55:21;101511.25;;;7.69
76713;BMP280;65640;43.154;25.658;2023-03-01T06:57:46;101504.81;;;7.72
76713;BMP280;65640;43.154;25.658;2023-03-01T07:00:12;101505.63;;;7.73
76713;BMP280;65640;43.154;25.658;2023-03-01T07:02:38;101512.53;;;7.67
76713;BMP280;65640;43.154;25.658;2023-03-01T07:05:04;101506.00;;;7.76
76713;BMP280;65640;43.154;25.658;2023-03-01T07:07:29;101519.25;;;7.75
76713;BMP280;65640;43.154;25.658;2023-03-01T07:09:55;101517.91;;;7.84
76713;BMP280;65640;43.154;25.658;2023-03-01T07:12:20;101515.91;;;7.86
76713;BMP280;65640;43.154;25.658;2023-03-01T07:14:45;101515.91;;;7.86
76713;BMP280;65640;43.154;25.658;2023-03-01T07:17:11;101515.31;;;7.84
76713;BMP280;65640;43.154;25.658;2023-03-01T07:19:36;101520.53;;;7.84
76713;BMP280;65640;43.154;25.658;2023-03-01T07:22:03;101520.53;;;7.84
76713;BMP280;65640;43.154;25.658;2023-03-01T07:24:29;101524.00;;;7.78
76713;BMP280;65640;43.154;25.658;2023-03-01T07:26:54;101523.88;;;7.73
76713;BMP280;65640;43.154;25.658;2023-03-01T07:29:20;101516.16;;;7.66
76713;BMP280;65640;43.154;25.658;2023-03-01T07:31:45;101525.31;;;7.68
76713;BMP280;65640;43.154;25.658;2023-03-01T07:34:11;101526.91;;;7.69
76713;BMP280;65640;43.154;25.658;2023-03-01T07:36:37;101522.63;;;7.63
76713;BMP280;65640;43.154;25.658;2023-03-01T07:39:04;101515.47;;;7.71
76713;BMP280;65640;43.154;25.658;2023-03-01T07:41:30;101513.28;;;7.67
76713;BMP280;65640;43.154;25.658;2023-03-01T07:43:55;101503.91;;;7.66
76713;BMP280;65640;43.154;25.658;2023-03-01T07:46:21;101508.66;;;7.69
76713;BMP280;65640;43.154;25.658;2023-03-01T07:48:46;101504.19;;;7.77
76713;BMP280;65640;43.154;25.658;2023-03-01T07:51:12;101508.66;;;7.88
76713;BMP280;65640;43.154;25.658;2023-03-01T07:53:38;101508.16;;;7.91
76713;BMP280;65640;43.154;25.658;2023-03-01T07:56:06;101505.56;;;7.91
76713;BMP280;65640;43.154;25.658;2023-03-01T07:58:34;101503.53;;;7.93
76713;BMP280;65640;43.154;25.658;2023-03-01T08:01:05;101506.28;;;7.98
76713;BMP280;65640;43.154;25.658;2023-03-01T08:03:32;101512.63;;;8.02
76713;BMP280;65640;43.154;25.658;2023-03-01T08:06:01;101507.53;;;7.95
76713;BMP280;65640;43.154;25.658;2023-03-01T08:08:27;101505.72;;;7.96
76713;BMP280;65640;43.154;25.658;2023-03-01T08:10:56;101507.63;;;8.00
76713;BMP280;65640;43.154;25.658;2023-03-01T08:13:22;101514.22;;;8.03
76713;BMP280;65640;43.154;25.658;2023-03-01T08:15:50;101508.59;;;8.06
76713;BMP280;65640;43.154;25.658;2023-03-01T08:18:17;101513.59;;;8.07
76713;BMP280;65640;43.154;25.658;2023-03-01T08:20:42;101517.31;;;8.12
76713;BMP280;65640;43.154;25.658;2023-03-01T08:23:08;101511.78;;;8.20
76713;BMP280;65640;43.154;25.658;2023-03-01T08:25:33;101516.22;;;8.19
76713;BMP280;65640;43.154;25.658;2023-03-01T08:27:59;101517.56;;;8.22
76713;BMP280;65640;43.154;25.658;2023-03-01T08:30:25;101518.56;;;8.21
76713;BMP280;65640;43.154;25.658;2023-03-01T08:32:50;101515.97;;;8.21
76713;BMP280;65640;43.154;25.658;2023-03-01T08:35:16;101516.75;;;8.21
76713;BMP280;65640;43.154;25.658;2023-03-01T08:37:42;101520.94;;;8.22
76713;BMP280;65640;43.154;25.658;2023-03-01T08:40:08;101516.91;;;8.26
76713;BMP280;65640;43.154;25.658;2023-03-01T08:42:35;101506.78;;;8.41
76713;BMP280;65640;43.154;25.658;2023-03-01T08:45:01;101506.34;;;8.44
76713;BMP280;65640;43.154;25.658;2023-03-01T08:47:27;101513.06;;;8.40
76713;BMP280;65640;43.154;25.658;2023-03-01T08:49:52;101508.38;;;8.42
76713;BMP280;65640;43.154;25.658;2023-03-01T08:52:19;101514.75;;;8.35
76713;BMP280;65640;43.154;25.658;2023-03-01T08:54:47;101514.88;;;8.28
76713;BMP280;65640;43.154;25.658;2023-03-01T08:57:12;101512.47;;;8.27
76713;BMP280;65640;43.154;25.658;2023-03-01T08:59:38;101513.63;;;8.31
76713;BMP280;65640;43.154;25.658;2023-03-01T09:02:04;101504.53;;;8.33
76713;BMP280;65640;43.154;25.658;2023-03-01T09:04:30;101506.94;;;8.35
76713;BMP280;65640;43.154;25.658;2023-03-01T09:06:55;101494.47;;;8.49
76713;BMP280;65640;43.154;25.658;2023-03-01T09:09:21;101508.63;;;8.53
76713;BMP280;65640;43.154;25.658;2023-03-01T09:11:46;101498.88;;;8.48
76713;BMP280;65640;43.154;25.658;2023-03-01T09:14:13;101498.78;;;8.55
76713;BMP280;65640;43.154;25.658;2023-03-01T09:16:39;101503.78;;;8.56
76713;BMP280;65640;43.154;25.658;2023-03-01T09:19:05;101508.88;;;8.51
76713;BMP280;65640;43.154;25.658;2023-03-01T09:21:30;101506.56;;;8.43
76713;BMP280;65640;43.154;25.658;2023-03-01T09:23:56;101511.72;;;8.50
76713;BMP280;65640;43.154;25.658;2023-03-01T09:26:23;101506.72;;;8.48
76713;BMP280;65640;43.154;25.658;2023-03-01T09:28:52;101505.69;;;8.49
76713;BMP280;65640;43.154;25.658;2023-03-01T09:31:19;101500.81;;;8.53
76713;BMP280;65640;43.154;25.658;2023-03-01T09:33:47;101502.50;;;8.59
76713;BMP280;65640;43.154;25.658;2023-03-01T09:36:15;101500.78;;;8.64
76713;BMP280;65640;43.154;25.658;2023-03-01T09:38:41;101502.28;;;8.60
76713;BMP280;65640;43.154;25.658;2023-03-01T09:43:42;101489.34;;;8.65
76713;BMP280;65640;43.154;25.658;2023-03-01T09:46:11;101483.00;;;8.61
76713;BMP280;65640;43.154;25.658;2023-03-01T09:49:01;101493.44;;;8.50
76713;BMP280;65640;43.154;25.658;2023-03-01T09:51:34;101487.41;;;8.61
76713;BMP280;65640;43.154;25.658;2023-03-01T09:54:05;101486.94;;;8.64
76713;BMP280;65640;43.154;25.658;2023-03-01T09:56:45;101487.53;;;8.66
76713;BMP280;65640;43.154;25.658;2023-03-01T09:59:17;101485.94;;;8.65
76713;BMP280;65640;43.154;25.658;2023-03-01T10:02:56;101482.31;;;8.66
76713;BMP280;65640;43.154;25.658;2023-03-01T10:05:00;101486.50;;;8.67
76713;BMP280;65640;43.154;25.658;2023-03-01T10:10:39;101487.84;;;8.81
76713;BMP280;65640;43.154;25.658;2023-03-01T10:13:16;101476.94;;;8.84
76713;BMP280;65640;43.154;25.658;2023-03-01T10:15:53;101479.03;;;8.70
76713;BMP280;65640;43.154;25.658;2023-03-01T10:18:28;101463.13;;;8.72
76713;BMP280;65640;43.154;25.658;2023-03-01T10:21:03;101461.88;;;8.74
76713;BMP280;65640;43.154;25.658;2023-03-01T10:23:32;101459.81;;;8.65
76713;BMP280;65640;43.154;25.658;2023-03-01T10:31:14;101453.81;;;8.64
76713;BMP280;65640;43.154;25.658;2023-03-01T10:33:41;101452.06;;;8.81
76713;BMP280;65640;43.154;25.658;2023-03-01T10:36:07;101454.22;;;8.96
76713;BMP280;65640;43.154;25.658;2023-03-01T10:38:52;101460.88;;;9.15
76713;BMP280;65640;43.154;25.658;2023-03-01T10:41:19;101452.44;;;9.25
76713;BMP280;65640;43.154;25.658;2023-03-01T10:43:51;101450.16;;;9.29
76713;BMP280;65640;43.154;25.658;2023-03-01T10:46:32;101448.63;;;9.33
76713;BMP280;65640;43.154;25.658;2023-03-01T10:51:41;101447.16;;;9.37
76713;BMP280;65640;43.154;25.658;2023-03-01T10:54:29;101442.47;;;9.39
76713;BMP280;65640;43.154;25.658;2023-03-01T10:57:04;101448.63;;;9.33
76713;BMP280;65640;43.154;25.658;2023-03-01T10:59:38;101436.59;;;9.32
76713;BMP280;65640;43.154;25.658;2023-03-01T11:02:28;101428.97;;;9.30
76713;BMP280;65640;43.154;25.658;2023-03-01T11:07:55;101427.47;;;9.17
76713;BMP280;65640;43.154;25.658;2023-03-01T11:10:33;101426.69;;;9.17
76713;BMP280;65640;43.154;25.658;2023-03-01T11:13:19;101422.25;;;9.17
76713;BMP280;65640;43.154;25.658;2023-03-01T11:15:59;101418.72;;;9.23
76713;BMP280;65640;43.154;25.658;2023-03-01T11:18:25;101408.41;;;9.05
76713;BMP280;65640;43.154;25.658;2023-03-01T11:20:53;101411.38;;;9.09
76713;BMP280;65640;43.154;25.658;2023-03-01T11:23:21;101410.34;;;9.10
76713;BMP280;65640;43.154;25.658;2023-03-01T11:25:58;101404.88;;;9.11
76713;BMP280;65640;43.154;25.658;2023-03-01T11:28:27;101396.38;;;9.04
76713;BMP280;65640;43.154;25.658;2023-03-01T11:33:44;101405.66;;;8.83
76713;BMP280;65640;43.154;25.658;2023-03-01T11:36:41;101401.69;;;8.81
76713;BMP280;65640;43.154;25.658;2023-03-01T11:39:32;101388.31;;;8.77
76713;BMP280;65640;43.154;25.658;2023-03-01T11:42:28;101386.56;;;8.83
76713;BMP280;65640;43.154;25.658;2023-03-01T11:44:55;101382.72;;;8.85
76713;BMP280;65640;43.154;25.658;2023-03-01T12:22:29;101368.47;;;8.76
76713;BMP280;65640;43.154;25.658;2023-03-01T12:30:40;101360.63;;;8.76
76713;BMP280;65640;43.154;25.658;2023-03-01T12:33:31;101359.00;;;8.87
76713;BMP280;65640;43.154;25.658;2023-03-01T12:50:18;101340.91;;;8.69
76713;BMP280;65640;43.154;25.658;2023-03-01T12:52:54;101345.19;;;8.75
76713;BMP280;65640;43.154;25.658;2023-03-01T12:55:31;101347.81;;;8.75
76713;BMP280;65640;43.154;25.658;2023-03-01T13:00:32;101348.38;;;8.77
76713;BMP280;65640;43.154;25.658;2023-03-01T13:06:08;101345.09;;;8.70
76713;BMP280;65640;43.154;25.658;2023-03-01T13:09:10;101346.78;;;8.64
76713;BMP280;65640;43.154;25.658;2023-03-01T13:11:41;101345.22;;;8.63
76713;BMP280;65640;43.154;25.658;2023-03-01T13:16:55;101348.50;;;8.59
76713;BMP280;65640;43.154;25.658;2023-03-01T13:19:25;101342.81;;;8.62
76713;BMP280;65640;43.154;25.658;2023-03-01T13:21:54;101344.41;;;8.63
76713;BMP280;65640;43.154;25.658;2023-03-01T13:24:39;101346.69;;;8.59
76713;BMP280;65640;43.154;25.658;2023-03-01T13:27:09;101339.44;;;8.61
76713;BMP280;65640;43.154;25.658;2023-03-01T13:29:54;101340.56;;;8.65
76713;BMP280;65640;43.154;25.658;2023-03-01T13:32:47;101333.75;;;8.64
76713;BMP280;65640;43.154;25.658;2023-03-01T13:37:43;101334.66;;;8.70
76713;BMP280;65640;43.154;25.658;2023-03-01T13:42:43;101340.84;;;8.80
76713;BMP280;65640;43.154;25.658;2023-03-01T13:47:54;101333.34;;;8.84
76713;BMP280;65640;43.154;25.658;2023-03-01T13:50:25;101331.28;;;8.86
76713;BMP280;65640;43.154;25.658;2023-03-01T13:55:27;101331.50;;;8.84
76713;BMP280;65640;43.154;25.658;2023-03-01T13:58:00;101331.78;;;8.71
76713;BMP280;65640;43.154;25.658;2023-03-01T14:00:39;101331.13;;;8.76
76713;BMP280;65640;43.154;25.658;2023-03-01T14:05:33;101329.34;;;8.81
76713;BMP280;65640;43.154;25.658;2023-03-01T14:07:59;101325.63;;;8.89
76713;BMP280;65640;43.154;25.658;2023-03-01T14:10:31;101324.59;;;8.90
76713;BMP280;65640;43.154;25.658;2023-03-01T14:15:34;101319.00;;;8.98
76713;BMP280;65640;43.154;25.658;2023-03-01T14:18:27;101322.22;;;9.05
76713;BMP280;65640;43.154;25.658;2023-03-01T14:20:55;101322.06;;;9.12
76713;BMP280;65640;43.154;25.658;2023-03-01T14:23:23;101321.19;;;9.06
76713;BMP280;65640;43.154;25.658;2023-03-01T14:25:50;101320.59;;;8.99
76713;BMP280;65640;43.154;25.658;2023-03-01T14:28:32;101320.94;;;8.91
76713;BMP280;65640;43.154;25.658;2023-03-01T14:31:00;101320.31;;;8.72
76713;BMP280;65640;43.154;25.658;2023-03-01T14:33:30;101315.47;;;8.64
76713;BMP280;65640;43.154;25.658;2023-03-01T14:36:10;101308.34;;;8.60
76713;BMP280;65640;43.154;25.658;2023-03-01T14:38:38;101311.81;;;8.49
76713;BMP280;65640;43.154;25.658;2023-03-01T14:41:18;101313.38;;;8.50
76713;BMP280;65640;43.154;25.658;2023-03-01T14:43:55;101309.94;;;8.61
76713;BMP280;65640;43.154;25.658;2023-03-01T14:46:40;101311.84;;;8.65
76713;BMP280;65640;43.154;25.658;2023-03-01T14:49:35;101310.59;;;8.68
76713;BMP280;65640;43.154;25.658;2023-03-01T14:52:19;101308.66;;;8.63
76713;BMP280;65640;43.154;25.658;2023-03-01T14:54:48;101309.34;;;8.70
76713;BMP280;65640;43.154;25.658;2023-03-01T14:57:21;101309.25;;;8.82
76713;BMP280;65640;43.154;25.658;2023-03-01T14:59:48;101307.56;;;8.88
76713;BMP280;65640;43.154;25.658;2023-03-01T15:02:19;101311.53;;;8.90
76713;BMP280;65640;43.154;25.658;2023-03-01T15:04:54;101313.66;;;8.93
76713;BMP280;65640;43.154;25.658;2023-03-01T15:07:23;101312.75;;;8.99
76713;BMP280;65640;43.154;25.658;2023-03-01T15:09:51;101309.34;;;8.99
76713;BMP280;65640;43.154;25.658;2023-03-01T15:14:56;101309.81;;;8.96
76713;BMP280;65640;43.154;25.658;2023-03-01T15:17:30;101306.41;;;8.95
76713;BMP280;65640;43.154;25.658;2023-03-01T15:19:56;101313.09;;;8.91
76713;BMP280;65640;43.154;25.658;2023-03-01T15:22:21;101312.97;;;8.98
76713;BMP280;65640;43.154;25.658;2023-03-01T15:24:49;101319.00;;;8.98
76713;BMP280;65640;43.154;25.658;2023-03-01T15:27:20;101315.91;;;9.01
76713;BMP280;65640;43.154;25.658;2023-03-01T15:29:52;101313.22;;;8.96
76713;BMP280;65640;43.154;25.658;2023-03-01T15:32:29;101319.56;;;9.00
76713;BMP280;65640;43.154;25.658;2023-03-01T15:34:55;101306.50;;;9.00
76713;BMP280;65640;43.154;25.658;2023-03-01T15:40:37;101310.19;;;9.04
76713;BMP280;65640;43.154;25.658;2023-03-01T15:43:37;101310.19;;;9.04
76713;BMP280;65640;43.154;25.658;2023-03-01T15:46:03;101312.41;;;8.96
76713;BMP280;65640;43.154;25.658;2023-03-01T15:48:29;101318.09;;;8.93
76713;BMP280;65640;43.154;25.658;2023-03-01T15:50:56;101313.09;;;8.91
76713;BMP280;65640;43.154;25.658;2023-03-01T15:53:23;101322.63;;;8.97
76713;BMP280;65640;43.154;25.658;2023-03-01T15:55:49;101320.81;;;8.98
76713;BMP280;65640;43.154;25.658;2023-03-01T15:58:23;101326.03;;;8.98
76713;BMP280;65640;43.154;25.658;2023-03-01T16:00:49;101323.00;;;8.89
76713;BMP280;65640;43.154;25.658;2023-03-01T16:03:17;101318.22;;;8.86